sensor_id;sensor_type;location;lat;lon;timestamp;temperature;humidity
13049;DHT22;6591;51.446;5.404;2022-09-30T00:01:43;7.10;99.90
13049;DHT22;6591;51.446;5.404;2022-09-30T00:04:16;7.10;99.90
13049;DHT22;6591;51.446;5.404;2022-09-30T00:06:49;7.10;99.90
13049;DHT22;6591;51.446;5.404;2022-09-30T00:09:18;7.10;99.90
13049;DHT22;6591;51.446;5.404;2022-09-30T00:11:45;7.60;99.90
13049;DHT22;6591;51.446;5.404;2022-09-30T00:14:17;7.10;99.90
13049;DHT22;6591;51.446;5.404;2022-09-30T00:16:46;7.20;99.90
13049;DHT22;6591;51.446;5.404;2022-09-30T00:19:14;7.40;99.90
13049;DHT22;6591;51.446;5.404;2022-09-30T00:21:42;7.40;99.90
13049;DHT22;6591;51.446;5.404;2022-09-30T00:24:09;8.50;99.90
13049;DHT22;6591;51.446;5.404;2022-09-30T00:26:36;7.20;99.90
13049;DHT22;6591;51.446;5.404;2022-09-30T00:29:03;8.90;99.90
13049;DHT22;6591;51.446;5.404;2022-09-30T00:31:33;7.60;99.90
13049;DHT22;6591;51.446;5.404;2022-09-30T00:34:02;7.10;99.90
13049;DHT22;6591;51.446;5.404;2022-09-30T00:36:41;9.60;99.90
13049;DHT22;6591;51.446;5.404;2022-09-30T00:39:13;7.10;99.90
13049;DHT22;6591;51.446;5.404;2022-09-30T00:41:52;7.20;99.90
13049;DHT22;6591;51.446;5.404;2022-09-30T00:45:04;7.10;99.90
13049;DHT22;6591;51.446;5.404;2022-09-30T00:47:47;7.10;99.90
13049;DHT22;6591;51.446;5.404;2022-09-30T00:50:37;7.00;99.90
13049;DHT22;6591;51.446;5.404;2022-09-30T00:53:18;7.00;99.90
13049;DHT22;6591;51.446;5.404;2022-09-30T00:56:11;7.00;99.90
13049;DHT22;6591;51.446;5.404;2022-09-30T00:58:46;7.00;99.90
13049;DHT22;6591;51.446;5.404;2022-09-30T01:01:18;7.00;99.90
13049;DHT22;6591;51.446;5.404;2022-09-30T01:06:23;6.90;99.90
13049;DHT22;6591;51.446;5.404;2022-09-30T01:08:51;6.40;99.90
13049;DHT22;6591;51.446;5.404;2022-09-30T01:11:20;6.80;99.90
13049;DHT22;6591;51.446;5.404;2022-09-30T01:13:51;8.00;99.90
13049;DHT22;6591;51.446;5.404;2022-09-30T01:16:49;6.70;99.90
13049;DHT22;6591;51.446;5.404;2022-09-30T01:25:12;9.00;99.90
13049;DHT22;6591;51.446;5.404;2022-09-30T01:28:10;6.50;99.90
13049;DHT22;6591;51.446;5.404;2022-09-30T01:33:47;6.50;99.90
13049;DHT22;6591;51.446;5.404;2022-09-30T01:40:18;6.50;99.90
13049;DHT22;6591;51.446;5.404;2022-09-30T01:43:04;6.40;99.90
13049;DHT22;6591;51.446;5.404;2022-09-30T01:48:29;6.90;99.90
13049;DHT22;6591;51.446;5.404;2022-09-30T01:51:46;6.40;99.90
13049;DHT22;6591;51.446;5.404;2022-09-30T02:00:17;6.40;99.90
13049;DHT22;6591;51.446;5.404;2022-09-30T02:02:55;5.00;99.90
13049;DHT22;6591;51.446;5.404;2022-09-30T02:05:29;8.50;99.90
13049;DHT22;6591;51.446;5.404;2022-09-30T02:08:15;6.30;99.90
13049;DHT22;6591;51.446;5.404;2022-09-30T02:10:56;6.30;99.90
13049;DHT22;6591;51.446;5.404;2022-09-30T02:16:07;8.90;99.90
13049;DHT22;6591;51.446;5.404;2022-09-30T02:18:46;6.30;99.90
13049;DHT22;6591;51.446;5.404;2022-09-30T02:21:20;4.00;99.90
13049;DHT22;6591;51.446;5.404;2022-09-30T02:23:56;6.30;99.90
13049;DHT22;6591;51.446;5.404;2022-09-30T02:26:31;6.30;99.90
13049;DHT22;6591;51.446;5.404;2022-09-30T02:29:25;6.20;99.90
13049;DHT22;6591;51.446;5.404;2022-09-30T02:32:01;6.10;99.90
13049;DHT22;6591;51.446;5.404;2022-09-30T02:34:37;6.10;99.90
13049;DHT22;6591;51.446;5.404;2022-09-30T02:37:15;6.10;99.90
13049;DHT22;6591;51.446;5.404;2022-09-30T02:40:02;8.60;99.90
13049;DHT22;6591;51.446;5.404;2022-09-30T02:42:38;6.10;99.90
13049;DHT22;6591;51.446;5.404;2022-09-30T02:45:10;7.20;99.90
13049;DHT22;6591;51.446;5.404;2022-09-30T02:51:09;6.10;99.90
13049;DHT22;6591;51.446;5.404;2022-09-30T02:59:57;5.90;99.90
13049;DHT22;6591;51.446;5.404;2022-09-30T03:02:30;7.20;99.90
13049;DHT22;6591;51.446;5.404;2022-09-30T03:04:57;5.80;99.90
13049;DHT22;6591;51.446;5.404;2022-09-30T03:07:27;5.80;99.90
13049;DHT22;6591;51.446;5.404;2022-09-30T03:09:56;5.70;99.90
13049;DHT22;6591;51.446;5.404;2022-09-30T03:12:39;5.70;99.90
13049;DHT22;6591;51.446;5.404;2022-09-30T03:27:27;5.60;99.90
13049;DHT22;6591;51.446;5.404;2022-09-30T03:30:04;5.60;99.90
13049;DHT22;6591;51.446;5.404;2022-09-30T03:32:55;5.60;99.90
13049;DHT22;6591;51.446;5.404;2022-09-30T03:36:02;5.60;99.90
13049;DHT22;6591;51.446;5.404;2022-09-30T03:39:09;5.70;99.90
13049;DHT22;6591;51.446;5.404;2022-09-30T03:44:40;5.70;99.90
13049;DHT22;6591;51.446;5.404;2022-09-30T03:47:20;5.70;99.90
13049;DHT22;6591;51.446;5.404;2022-09-30T03:49:55;5.70;99.90
13049;DHT22;6591;51.446;5.404;2022-09-30T03:52:29;6.30;99.90
13049;DHT22;6591;51.446;5.404;2022-09-30T03:55:00;5.70;99.90
13049;DHT22;6591;51.446;5.404;2022-09-30T03:57:30;5.70;99.90
13049;DHT22;6591;51.446;5.404;2022-09-30T03:59:57;5.60;99.90
13049;DHT22;6591;51.446;5.404;2022-09-30T04:02:25;6.40;99.90
13049;DHT22;6591;51.446;5.404;2022-09-30T04:04:55;5.60;99.90
13049;DHT22;6591;51.446;5.404;2022-09-30T04:07:22;5.70;99.90
13049;DHT22;6591;51.446;5.404;2022-09-30T04:09:49;4.90;99.90
13049;DHT22;6591;51.446;5.404;2022-09-30T04:12:16;5.70;99.90
13049;DHT22;6591;51.446;5.404;2022-09-30T04:14:43;7.30;99.90
13049;DHT22;6591;51.446;5.404;2022-09-30T04:17:10;5.60;99.90
13049;DHT22;6591;51.446;5.404;2022-09-30T04:19:37;5.60;99.90
13049;DHT22;6591;51.446;5.404;2022-09-30T04:22:07;5.50;99.90
13049;DHT22;6591;51.446;5.404;2022-09-30T04:24:34;7.30;99.90
13049;DHT22;6591;51.446;5.404;2022-09-30T04:27:02;5.60;99.90
13049;DHT22;6591;51.446;5.404;2022-09-30T04:29:29;6.90;99.90
13049;DHT22;6591;51.446;5.404;2022-09-30T04:31:56;5.50;99.90
13049;DHT22;6591;51.446;5.404;2022-09-30T04:34:23;5.60;99.90
13049;DHT22;6591;51.446;5.404;2022-09-30T04:36:50;8.40;99.90
13049;DHT22;6591;51.446;5.404;2022-09-30T04:39:17;6.90;99.90
13049;DHT22;6591;51.446;5.404;2022-09-30T04:41:44;6.30;99.90
13049;DHT22;6591;51.446;5.404;2022-09-30T04:44:11;5.60;99.90
13049;DHT22;6591;51.446;5.404;2022-09-30T04:46:39;7.60;99.90
13049;DHT22;6591;51.446;5.404;2022-09-30T04:49:06;5.50;99.90
13049;DHT22;6591;51.446;5.404;2022-09-30T04:51:44;5.20;99.90
13049;DHT22;6591;51.446;5.404;2022-09-30T04:54:12;5.40;99.90
13049;DHT22;6591;51.446;5.404;2022-09-30T04:56:39;7.60;99.90
13049;DHT22;6591;51.446;5.404;2022-09-30T04:59:06;5.40;99.90
13049;DHT22;6591;51.446;5.404;2022-09-30T05:01:33;5.40;99.90
13049;DHT22;6591;51.446;5.404;2022-09-30T05:04:01;5.30;99.90
13049;DHT22;6591;51.446;5.404;2022-09-30T05:06:28;5.30;99.90
13049;DHT22;6591;51.446;5.404;2022-09-30T05:08:55;5.30;99.90
13049;DHT22;6591;51.446;5.404;2022-09-30T05:11:22;5.30;99.90
13049;DHT22;6591;51.446;5.404;2022-09-30T05:13:49;5.30;99.90
13049;DHT22;6591;51.446;5.404;2022-09-30T05:16:17;7.70;99.90
13049;DHT22;6591;51.446;5.404;2022-09-30T05:21:14;5.30;99.90
13049;DHT22;6591;51.446;5.404;2022-09-30T05:23:43;5.20;99.90
13049;DHT22;6591;51.446;5.404;2022-09-30T05:26:10;5.20;99.90
13049;DHT22;6591;51.446;5.404;2022-09-30T05:28:39;5.20;99.90
13049;DHT22;6591;51.446;5.404;2022-09-30T05:31:08;6.80;99.90
13049;DHT22;6591;51.446;5.404;2022-09-30T05:33:35;5.40;99.90
13049;DHT22;6591;51.446;5.404;2022-09-30T05:36:05;5.20;99.90
13049;DHT22;6591;51.446;5.404;2022-09-30T05:38:33;5.20;99.90
13049;DHT22;6591;51.446;5.404;2022-09-30T05:41:08;4.40;99.90
13049;DHT22;6591;51.446;5.404;2022-09-30T05:43:38;5.10;99.90
13049;DHT22;6591;51.446;5.404;2022-09-30T05:46:07;6.50;99.90
13049;DHT22;6591;51.446;5.404;2022-09-30T05:48:34;5.20;99.90
13049;DHT22;6591;51.446;5.404;2022-09-30T05:51:01;6.60;99.90
13049;DHT22;6591;51.446;5.404;2022-09-30T05:53:33;5.30;99.90
13049;DHT22;6591;51.446;5.404;2022-09-30T05:56:08;4.70;99.90
13049;DHT22;6591;51.446;5.404;2022-09-30T05:58:36;6.60;99.90
13049;DHT22;6591;51.446;5.404;2022-09-30T06:01:08;5.00;99.90
13049;DHT22;6591;51.446;5.404;2022-09-30T06:03:43;6.70;99.90
13049;DHT22;6591;51.446;5.404;2022-09-30T06:06:13;5.40;99.90
13049;DHT22;6591;51.446;5.404;2022-09-30T06:08:41;5.40;99.90
13049;DHT22;6591;51.446;5.404;2022-09-30T06:11:11;5.50;99.90
13049;DHT22;6591;51.446;5.404;2022-09-30T06:13:41;5.50;99.90
13049;DHT22;6591;51.446;5.404;2022-09-30T06:16:10;5.50;99.90
13049;DHT22;6591;51.446;5.404;2022-09-30T06:18:38;5.50;99.90
13049;DHT22;6591;51.446;5.404;2022-09-30T06:21:09;5.60;99.90
13049;DHT22;6591;51.446;5.404;2022-09-30T06:23:39;5.60;99.90
13049;DHT22;6591;51.446;5.404;2022-09-30T06:26:08;5.60;99.90
13049;DHT22;6591;51.446;5.404;2022-09-30T06:28:37;5.60;99.90
13049;DHT22;6591;51.446;5.404;2022-09-30T06:31:05;5.70;99.90
13049;DHT22;6591;51.446;5.404;2022-09-30T06:33:32;5.70;99.90
13049;DHT22;6591;51.446;5.404;2022-09-30T06:36:00;5.80;99.90
13049;DHT22;6591;51.446;5.404;2022-09-30T06:38:31;5.80;99.90
13049;DHT22;6591;51.446;5.404;2022-09-30T06:41:03;5.90;99.90
13049;DHT22;6591;51.446;5.404;2022-09-30T06:43:30;6.00;99.90
13049;DHT22;6591;51.446;5.404;2022-09-30T06:46:18;6.10;99.90
13049;DHT22;6591;51.446;5.404;2022-09-30T06:48:56;6.20;99.90
13049;DHT22;6591;51.446;5.404;2022-09-30T06:51:38;6.70;99.90
13049;DHT22;6591;51.446;5.404;2022-09-30T06:54:06;6.40;99.90
13049;DHT22;6591;51.446;5.404;2022-09-30T06:56:35;6.70;99.90
13049;DHT22;6591;51.446;5.404;2022-09-30T06:59:02;6.60;99.90
13049;DHT22;6591;51.446;5.404;2022-09-30T07:01:30;8.80;99.90
13049;DHT22;6591;51.446;5.404;2022-09-30T07:03:59;6.70;99.90
13049;DHT22;6591;51.446;5.404;2022-09-30T07:06:28;6.90;99.90
13049;DHT22;6591;51.446;5.404;2022-09-30T07:08:56;8.30;99.90
13049;DHT22;6591;51.446;5.404;2022-09-30T07:11:24;7.10;99.90
13049;DHT22;6591;51.446;5.404;2022-09-30T07:13:51;7.40;99.90
13049;DHT22;6591;51.446;5.404;2022-09-30T07:16:19;7.30;99.90
13049;DHT22;6591;51.446;5.404;2022-09-30T07:18:47;7.60;99.90
13049;DHT22;6591;51.446;5.404;2022-09-30T07:21:14;9.80;99.90
13049;DHT22;6591;51.446;5.404;2022-09-30T07:23:45;7.80;99.90
13049;DHT22;6591;51.446;5.404;2022-09-30T07:26:18;7.90;99.90
13049;DHT22;6591;51.446;5.404;2022-09-30T07:28:48;8.10;99.90
13049;DHT22;6591;51.446;5.404;2022-09-30T07:31:19;8.30;99.90
13049;DHT22;6591;51.446;5.404;2022-09-30T07:34:02;9.40;99.90
13049;DHT22;6591;51.446;5.404;2022-09-30T07:36:33;10.60;99.90
13049;DHT22;6591;51.446;5.404;2022-09-30T07:39:05;8.80;99.90
13049;DHT22;6591;51.446;5.404;2022-09-30T07:41:36;10.50;99.90
13049;DHT22;6591;51.446;5.404;2022-09-30T07:44:09;9.20;99.90
13049;DHT22;6591;51.446;5.404;2022-09-30T07:46:41;9.40;99.90
13049;DHT22;6591;51.446;5.404;2022-09-30T07:49:13;10.90;99.90
13049;DHT22;6591;51.446;5.404;2022-09-30T07:51:46;9.80;99.90
13049;DHT22;6591;51.446;5.404;2022-09-30T07:54:17;11.20;99.90
13049;DHT22;6591;51.446;5.404;2022-09-30T07:56:48;13.00;99.90
13049;DHT22;6591;51.446;5.404;2022-09-30T07:59:38;10.30;99.90
13049;DHT22;6591;51.446;5.404;2022-09-30T08:02:12;10.40;99.90
13049;DHT22;6591;51.446;5.404;2022-09-30T08:04:41;13.10;99.90
13049;DHT22;6591;51.446;5.404;2022-09-30T08:07:11;10.60;99.90
13049;DHT22;6591;51.446;5.404;2022-09-30T08:09:40;10.80;99.90
13049;DHT22;6591;51.446;5.404;2022-09-30T08:12:07;11.00;99.90
13049;DHT22;6591;51.446;5.404;2022-09-30T08:14:37;12.40;99.90
13049;DHT22;6591;51.446;5.404;2022-09-30T08:17:04;11.30;99.90
13049;DHT22;6591;51.446;5.404;2022-09-30T08:19:31;12.40;99.90
13049;DHT22;6591;51.446;5.404;2022-09-30T08:21:59;13.90;99.90
13049;DHT22;6591;51.446;5.404;2022-09-30T08:24:27;13.50;99.90
13049;DHT22;6591;51.446;5.404;2022-09-30T08:26:54;12.00;99.90
13049;DHT22;6591;51.446;5.404;2022-09-30T08:29:22;14.10;99.90
13049;DHT22;6591;51.446;5.404;2022-09-30T08:32:09;14.00;99.90
13049;DHT22;6591;51.446;5.404;2022-09-30T08:34:36;14.30;99.90
13049;DHT22;6591;51.446;5.404;2022-09-30T08:37:04;14.30;99.90
13049;DHT22;6591;51.446;5.404;2022-09-30T08:39:38;13.00;99.90
13049;DHT22;6591;51.446;5.404;2022-09-30T08:48:25;12.30;99.90
13049;DHT22;6591;51.446;5.404;2022-09-30T08:51:20;13.80;99.90
13049;DHT22;6591;51.446;5.404;2022-09-30T08:53:58;14.70;99.90
13049;DHT22;6591;51.446;5.404;2022-09-30T08:56:30;14.30;99.90
13049;DHT22;6591;51.446;5.404;2022-09-30T09:02:20;14.70;99.90
13049;DHT22;6591;51.446;5.404;2022-09-30T09:04:58;15.00;99.90
13049;DHT22;6591;51.446;5.404;2022-09-30T09:07:42;16.20;99.90
13049;DHT22;6591;51.446;5.404;2022-09-30T09:10:41;15.40;99.90
13049;DHT22;6591;51.446;5.404;2022-09-30T09:21:52;16.40;99.90
13049;DHT22;6591;51.446;5.404;2022-09-30T09:26:57;18.10;99.90
13049;DHT22;6591;51.446;5.404;2022-09-30T09:29:36;17.10;99.90
13049;DHT22;6591;51.446;5.404;2022-09-30T09:32:15;17.20;99.90
13049;DHT22;6591;51.446;5.404;2022-09-30T09:34:49;17.40;99.90
13049;DHT22;6591;51.446;5.404;2022-09-30T09:40:48;17.80;99.90
13049;DHT22;6591;51.446;5.404;2022-09-30T09:57:19;19.00;99.90
13049;DHT22;6591;51.446;5.404;2022-09-30T10:00:11;21.00;99.90
13049;DHT22;6591;51.446;5.404;2022-09-30T10:03:15;19.40;99.90
13049;DHT22;6591;51.446;5.404;2022-09-30T10:06:02;19.60;99.90
13049;DHT22;6591;51.446;5.404;2022-09-30T10:08:34;19.80;99.90
13049;DHT22;6591;51.446;5.404;2022-09-30T10:11:07;20.00;99.90
13049;DHT22;6591;51.446;5.404;2022-09-30T10:13:46;22.40;99.90
13049;DHT22;6591;51.446;5.404;2022-09-30T10:16:33;20.30;99.90
13049;DHT22;6591;51.446;5.404;2022-09-30T10:19:16;22.10;99.90
13049;DHT22;6591;51.446;5.404;2022-09-30T10:21:46;20.50;99.90
13049;DHT22;6591;51.446;5.404;2022-09-30T10:24:29;22.30;99.90
13049;DHT22;6591;51.446;5.404;2022-09-30T10:26:57;20.60;99.90
13049;DHT22;6591;51.446;5.404;2022-09-30T10:29:33;22.40;99.90
13049;DHT22;6591;51.446;5.404;2022-09-30T10:32:05;19.90;99.90
13049;DHT22;6591;51.446;5.404;2022-09-30T10:34:40;20.90;99.90
13049;DHT22;6591;51.446;5.404;2022-09-30T10:37:16;21.10;99.90
13049;DHT22;6591;51.446;5.404;2022-09-30T10:40:07;21.20;99.90
13049;DHT22;6591;51.446;5.404;2022-09-30T10:42:45;21.40;99.90
13049;DHT22;6591;51.446;5.404;2022-09-30T10:45:22;21.60;99.90
13049;DHT22;6591;51.446;5.404;2022-09-30T10:47:55;21.80;99.90
13049;DHT22;6591;51.446;5.404;2022-09-30T10:50:25;22.10;99.90
13049;DHT22;6591;51.446;5.404;2022-09-30T10:52:59;22.60;99.90
13049;DHT22;6591;51.446;5.404;2022-09-30T10:55:42;22.20;99.90
13049;DHT22;6591;51.446;5.404;2022-09-30T10:58:35;22.30;99.90
13049;DHT22;6591;51.446;5.404;2022-09-30T11:04:04;22.20;99.90
13049;DHT22;6591;51.446;5.404;2022-09-30T11:06:45;22.20;99.90
13049;DHT22;6591;51.446;5.404;2022-09-30T11:09:21;22.10;99.90
13049;DHT22;6591;51.446;5.404;2022-09-30T11:12:08;22.00;99.90
13049;DHT22;6591;51.446;5.404;2022-09-30T11:15:37;21.30;99.90
13049;DHT22;6591;51.446;5.404;2022-09-30T11:18:11;22.10;99.90
13049;DHT22;6591;51.446;5.404;2022-09-30T11:21:02;22.00;99.90
13049;DHT22;6591;51.446;5.404;2022-09-30T11:23:45;22.10;99.90
13049;DHT22;6591;51.446;5.404;2022-09-30T11:26:26;22.20;99.90
13049;DHT22;6591;51.446;5.404;2022-09-30T11:29:35;24.30;99.90
13049;DHT22;6591;51.446;5.404;2022-09-30T11:41:35;23.50;99.90
13049;DHT22;6591;51.446;5.404;2022-09-30T11:44:36;23.70;99.90
13049;DHT22;6591;51.446;5.404;2022-09-30T11:50:22;23.90;99.90
13049;DHT22;6591;51.446;5.404;2022-09-30T11:53:10;23.70;99.90
13049;DHT22;6591;51.446;5.404;2022-09-30T11:58:35;23.20;99.90
13049;DHT22;6591;51.446;5.404;2022-09-30T12:01:21;23.50;99.90
13049;DHT22;6591;51.446;5.404;2022-09-30T12:06:45;22.30;99.90
13049;DHT22;6591;51.446;5.404;2022-09-30T12:09:22;24.20;99.90
13049;DHT22;6591;51.446;5.404;2022-09-30T12:11:57;21.80;99.90
13049;DHT22;6591;51.446;5.404;2022-09-30T12:14:44;23.90;99.90
13049;DHT22;6591;51.446;5.404;2022-09-30T12:20:23;21.20;99.90
13049;DHT22;6591;51.446;5.404;2022-09-30T12:23:19;21.10;99.90
13049;DHT22;6591;51.446;5.404;2022-09-30T12:25:54;21.20;99.90
13049;DHT22;6591;51.446;5.404;2022-09-30T12:46:40;21.00;99.90
13049;DHT22;6591;51.446;5.404;2022-09-30T12:49:27;21.10;99.90
13049;DHT22;6591;51.446;5.404;2022-09-30T12:52:04;21.10;99.90
13049;DHT22;6591;51.446;5.404;2022-09-30T12:54:40;21.10;99.90
13049;DHT22;6591;51.446;5.404;2022-09-30T12:57:28;22.40;99.90
13049;DHT22;6591;51.446;5.404;2022-09-30T13:00:21;21.20;99.90
13049;DHT22;6591;51.446;5.404;2022-09-30T13:03:01;21.50;99.90
13049;DHT22;6591;51.446;5.404;2022-09-30T13:10:31;23.20;99.90
13049;DHT22;6591;51.446;5.404;2022-09-30T13:15:58;22.10;99.90
13049;DHT22;6591;51.446;5.404;2022-09-30T13:23:40;24.00;99.90
13049;DHT22;6591;51.446;5.404;2022-09-30T13:34:20;22.40;99.90
13049;DHT22;6591;51.446;5.404;2022-09-30T13:37:01;22.40;99.90
13049;DHT22;6591;51.446;5.404;2022-09-30T13:40:03;22.30;99.90
13049;DHT22;6591;51.446;5.404;2022-09-30T13:43:20;22.30;98.90
13049;DHT22;6591;51.446;5.404;2022-09-30T13:45:54;22.20;99.90
13049;DHT22;6591;51.446;5.404;2022-09-30T13:48:34;22.50;99.90
13049;DHT22;6591;51.446;5.404;2022-09-30T13:51:10;23.40;99.90
13049;DHT22;6591;51.446;5.404;2022-09-30T13:53:44;22.50;99.90
13049;DHT22;6591;51.446;5.404;2022-09-30T13:56:18;22.60;99.90
13049;DHT22;6591;51.446;5.404;2022-09-30T14:14:12;23.50;98.70
13049;DHT22;6591;51.446;5.404;2022-09-30T14:17:16;24.00;98.70
13049;DHT22;6591;51.446;5.404;2022-09-30T14:20:18;23.40;99.70
13049;DHT22;6591;51.446;5.404;2022-09-30T14:23:17;23.30;99.90
13049;DHT22;6591;51.446;5.404;2022-09-30T14:25:55;23.20;99.90
13049;DHT22;6591;51.446;5.404;2022-09-30T14:28:35;23.80;99.30
13049;DHT22;6591;51.446;5.404;2022-09-30T14:31:12;23.30;99.80
13049;DHT22;6591;51.446;5.404;2022-09-30T14:33:42;23.00;99.50
13049;DHT22;6591;51.446;5.404;2022-09-30T14:36:15;25.70;99.90
13049;DHT22;6591;51.446;5.404;2022-09-30T14:38:55;25.40;99.90
13049;DHT22;6591;51.446;5.404;2022-09-30T14:41:25;22.90;99.80
13049;DHT22;6591;51.446;5.404;2022-09-30T14:43:58;22.90;99.90
13049;DHT22;6591;51.446;5.404;2022-09-30T14:46:38;22.80;99.30
13049;DHT22;6591;51.446;5.404;2022-09-30T14:49:13;22.90;98.40
13049;DHT22;6591;51.446;5.404;2022-09-30T14:51:46;22.70;98.50
13049;DHT22;6591;51.446;5.404;2022-09-30T14:54:19;22.50;98.20
13049;DHT22;6591;51.446;5.404;2022-09-30T14:56:49;22.60;97.60
13049;DHT22;6591;51.446;5.404;2022-09-30T14:59:31;22.50;98.50
13049;DHT22;6591;51.446;5.404;2022-09-30T15:02:03;22.40;97.90
13049;DHT22;6591;51.446;5.404;2022-09-30T15:04:52;22.40;98.40
13049;DHT22;6591;51.446;5.404;2022-09-30T15:07:27;22.50;98.40
13049;DHT22;6591;51.446;5.404;2022-09-30T15:10:00;22.30;99.40
13049;DHT22;6591;51.446;5.404;2022-09-30T15:12:28;24.60;99.10
13049;DHT22;6591;51.446;5.404;2022-09-30T15:14:58;22.40;99.20
13049;DHT22;6591;51.446;5.404;2022-09-30T15:19:57;22.50;99.30
13049;DHT22;6591;51.446;5.404;2022-09-30T15:22:26;22.60;99.70
13049;DHT22;6591;51.446;5.404;2022-09-30T15:24:56;22.70;99.60
13049;DHT22;6591;51.446;5.404;2022-09-30T15:27:32;22.80;99.20
13049;DHT22;6591;51.446;5.404;2022-09-30T15:30:25;22.90;98.40
13049;DHT22;6591;51.446;5.404;2022-09-30T15:33:00;23.00;97.10
13049;DHT22;6591;51.446;5.404;2022-09-30T15:35:31;23.20;99.10
13049;DHT22;6591;51.446;5.404;2022-09-30T15:38:07;23.20;98.30
13049;DHT22;6591;51.446;5.404;2022-09-30T15:40:44;23.30;97.40
13049;DHT22;6591;51.446;5.404;2022-09-30T15:43:39;23.20;98.00
13049;DHT22;6591;51.446;5.404;2022-09-30T15:49:31;23.10;96.20
13049;DHT22;6591;51.446;5.404;2022-09-30T15:54:55;22.80;96.20
13049;DHT22;6591;51.446;5.404;2022-09-30T15:57:43;23.10;97.90
13049;DHT22;6591;51.446;5.404;2022-09-30T16:00:38;22.80;96.00
13049;DHT22;6591;51.446;5.404;2022-09-30T16:06:06;24.40;98.30
13049;DHT22;6591;51.446;5.404;2022-09-30T16:08:44;23.20;97.10
13049;DHT22;6591;51.446;5.404;2022-09-30T16:11:22;22.30;96.80
13049;DHT22;6591;51.446;5.404;2022-09-30T16:13:53;22.20;97.30
13049;DHT22;6591;51.446;5.404;2022-09-30T16:16:25;22.10;97.60
13049;DHT22;6591;51.446;5.404;2022-09-30T16:19:37;21.90;97.70
13049;DHT22;6591;51.446;5.404;2022-09-30T16:22:24;23.70;96.70
13049;DHT22;6591;51.446;5.404;2022-09-30T16:25:16;20.10;97.20
13049;DHT22;6591;51.446;5.404;2022-09-30T16:28:04;23.40;97.10
13049;DHT22;6591;51.446;5.404;2022-09-30T16:30:48;22.10;96.70
13049;DHT22;6591;51.446;5.404;2022-09-30T16:33:16;22.80;96.80
13049;DHT22;6591;51.446;5.404;2022-09-30T16:35:44;22.60;97.70
13049;DHT22;6591;51.446;5.404;2022-09-30T16:38:15;20.30;97.10
13049;DHT22;6591;51.446;5.404;2022-09-30T16:40:44;20.10;97.20
13049;DHT22;6591;51.446;5.404;2022-09-30T16:43:11;19.80;97.40
13049;DHT22;6591;51.446;5.404;2022-09-30T16:45:38;20.60;97.70
13049;DHT22;6591;51.446;5.404;2022-09-30T16:48:14;18.30;97.20
13049;DHT22;6591;51.446;5.404;2022-09-30T16:51:01;19.90;97.40
13049;DHT22;6591;51.446;5.404;2022-09-30T16:53:40;18.90;97.00
13049;DHT22;6591;51.446;5.404;2022-09-30T16:56:17;18.70;98.00
13049;DHT22;6591;51.446;5.404;2022-09-30T16:58:46;20.30;98.20
13049;DHT22;6591;51.446;5.404;2022-09-30T17:01:21;20.40;99.00
13049;DHT22;6591;51.446;5.404;2022-09-30T17:03:51;18.10;98.20
13049;DHT22;6591;51.446;5.404;2022-09-30T17:06:26;17.90;98.80
13049;DHT22;6591;51.446;5.404;2022-09-30T17:08:55;19.90;99.50
13049;DHT22;6591;51.446;5.404;2022-09-30T17:11:28;17.50;99.10
13049;DHT22;6591;51.446;5.404;2022-09-30T17:13:59;17.90;99.40
13049;DHT22;6591;51.446;5.404;2022-09-30T17:16:27;19.10;99.90
13049;DHT22;6591;51.446;5.404;2022-09-30T17:18:55;17.10;99.50
13049;DHT22;6591;51.446;5.404;2022-09-30T17:21:25;17.00;99.60
13049;DHT22;6591;51.446;5.404;2022-09-30T17:23:54;16.90;99.70
13049;DHT22;6591;51.446;5.404;2022-09-30T17:26:21;16.70;99.90
13049;DHT22;6591;51.446;5.404;2022-09-30T17:28:48;18.20;99.90
13049;DHT22;6591;51.446;5.404;2022-09-30T17:31:15;18.10;99.90
13049;DHT22;6591;51.446;5.404;2022-09-30T17:33:42;16.40;99.90
13049;DHT22;6591;51.446;5.404;2022-09-30T17:36:11;16.30;99.90
13049;DHT22;6591;51.446;5.404;2022-09-30T17:38:39;17.90;99.90
13049;DHT22;6591;51.446;5.404;2022-09-30T17:41:09;15.50;99.90
13049;DHT22;6591;51.446;5.404;2022-09-30T17:43:58;17.90;99.90
13049;DHT22;6591;51.446;5.404;2022-09-30T17:46:27;15.90;99.90
13049;DHT22;6591;51.446;5.404;2022-09-30T17:48:54;15.90;99.90
13049;DHT22;6591;51.446;5.404;2022-09-30T17:51:22;15.80;99.90
13049;DHT22;6591;51.446;5.404;2022-09-30T17:53:49;18.00;99.90
13049;DHT22;6591;51.446;5.404;2022-09-30T17:56:18;15.60;99.90
13049;DHT22;6591;51.446;5.404;2022-09-30T17:58:48;15.50;99.90
13049;DHT22;6591;51.446;5.404;2022-09-30T18:01:18;15.50;99.90
13049;DHT22;6591;51.446;5.404;2022-09-30T18:03:46;16.90;99.90
13049;DHT22;6591;51.446;5.404;2022-09-30T18:06:19;15.30;99.90
13049;DHT22;6591;51.446;5.404;2022-09-30T18:08:50;16.50;99.90
13049;DHT22;6591;51.446;5.404;2022-09-30T18:11:19;15.10;99.90
13049;DHT22;6591;51.446;5.404;2022-09-30T18:13:54;16.50;99.90
13049;DHT22;6591;51.446;5.404;2022-09-30T18:16:25;14.90;99.90
13049;DHT22;6591;51.446;5.404;2022-09-30T18:19:00;14.40;99.90
13049;DHT22;6591;51.446;5.404;2022-09-30T18:21:30;15.70;99.90
13049;DHT22;6591;51.446;5.404;2022-09-30T18:23:59;14.70;99.90
13049;DHT22;6591;51.446;5.404;2022-09-30T18:26:29;14.60;99.90
13049;DHT22;6591;51.446;5.404;2022-09-30T18:29:01;14.60;99.90
13049;DHT22;6591;51.446;5.404;2022-09-30T18:31:28;14.70;99.90
13049;DHT22;6591;51.446;5.404;2022-09-30T18:34:04;14.50;99.90
13049;DHT22;6591;51.446;5.404;2022-09-30T18:36:32;14.50;99.90
13049;DHT22;6591;51.446;5.404;2022-09-30T18:39:00;14.40;99.90
13049;DHT22;6591;51.446;5.404;2022-09-30T18:41:28;15.00;99.90
13049;DHT22;6591;51.446;5.404;2022-09-30T18:43:58;13.30;99.90
13049;DHT22;6591;51.446;5.404;2022-09-30T18:46:29;16.50;99.90
13049;DHT22;6591;51.446;5.404;2022-09-30T18:48:57;12.50;99.90
13049;DHT22;6591;51.446;5.404;2022-09-30T18:51:24;14.20;99.90
13049;DHT22;6591;51.446;5.404;2022-09-30T18:53:53;14.50;99.90
13049;DHT22;6591;51.446;5.404;2022-09-30T18:56:26;14.10;99.90
13049;DHT22;6591;51.446;5.404;2022-09-30T18:59:02;14.00;99.90
13049;DHT22;6591;51.446;5.404;2022-09-30T19:01:31;14.40;99.90
13049;DHT22;6591;51.446;5.404;2022-09-30T19:04:03;14.00;99.90
13049;DHT22;6591;51.446;5.404;2022-09-30T19:06:30;14.00;99.90
13049;DHT22;6591;51.446;5.404;2022-09-30T19:08:58;14.90;99.90
13049;DHT22;6591;51.446;5.404;2022-09-30T19:11:25;15.90;99.90
13049;DHT22;6591;51.446;5.404;2022-09-30T19:13:56;14.00;99.90
13049;DHT22;6591;51.446;5.404;2022-09-30T19:16:28;14.10;99.90
13049;DHT22;6591;51.446;5.404;2022-09-30T19:19:05;15.20;99.90
13049;DHT22;6591;51.446;5.404;2022-09-30T19:21:36;14.10;99.90
13049;DHT22;6591;51.446;5.404;2022-09-30T19:24:06;14.10;99.90
13049;DHT22;6591;51.446;5.404;2022-09-30T19:26:36;14.70;99.90
13049;DHT22;6591;51.446;5.404;2022-09-30T19:29:04;15.60;99.90
13049;DHT22;6591;51.446;5.404;2022-09-30T19:31:35;14.30;99.90
13049;DHT22;6591;51.446;5.404;2022-09-30T19:34:03;16.20;99.90
13049;DHT22;6591;51.446;5.404;2022-09-30T19:36:31;14.20;99.90
13049;DHT22;6591;51.446;5.404;2022-09-30T19:39:12;14.70;99.90
13049;DHT22;6591;51.446;5.404;2022-09-30T19:41:39;16.50;99.90
13049;DHT22;6591;51.446;5.404;2022-09-30T19:44:06;14.40;99.90